createdAt,value
2022-12-28T00:00:18.351Z,3.84
2022-12-28T00:02:47.174Z,3.90
2022-12-28T00:05:18.049Z,3.96
2022-12-28T00:07:46.938Z,4.01
2022-12-28T00:10:17.750Z,4.07
2022-12-28T00:13:06.551Z,4.14
2022-12-28T00:15:35.265Z,4.22
2022-12-28T00:18:05.899Z,3.96
2022-12-28T00:20:34.687Z,4.27
2022-12-28T00:23:06.852Z,4.34
2022-12-28T00:25:38.188Z,4.37
2022-12-28T00:28:07.364Z,4.40
2022-12-28T00:30:36.103Z,4.41
2022-12-28T00:33:05.347Z,4.44
2022-12-28T00:35:33.785Z,4.27
2022-12-28T00:38:02.837Z,4.48
2022-12-28T00:40:31.360Z,4.50
2022-12-28T00:43:01.177Z,4.50
2022-12-28T00:45:29.996Z,4.52
2022-12-28T00:47:59.530Z,4.52
2022-12-28T00:50:28.434Z,4.57
2022-12-28T00:52:57.184Z,4.59
2022-12-28T00:55:26.030Z,4.60
2022-12-28T00:57:57.965Z,4.62
2022-12-28T01:00:28.168Z,3.62
2022-12-28T01:02:57.501Z,4.64
2022-12-28T01:05:28.120Z,4.64
2022-12-28T01:07:57.119Z,4.67
2022-12-28T01:10:26.192Z,4.67
2022-12-28T01:12:55.689Z,4.63
2022-12-28T01:15:29.094Z,4.67
2022-12-28T01:18:02.637Z,4.69
2022-12-28T01:20:33.351Z,4.67
2022-12-28T01:23:07.512Z,4.68
2022-12-28T01:25:43.093Z,2.88
2022-12-28T01:28:13.194Z,4.68
2022-12-28T01:30:42.165Z,4.69
2022-12-28T01:33:12.136Z,4.12
2022-12-28T01:35:41.062Z,4.72
2022-12-28T01:38:12.617Z,4.73
2022-12-28T01:40:55.959Z,3.88
2022-12-28T01:43:43.483Z,4.74
2022-12-28T01:46:18.451Z,4.76
2022-12-28T01:48:56.452Z,4.75
2022-12-28T01:51:30.410Z,4.75
2022-12-28T01:54:03.090Z,4.26
2022-12-28T01:56:32.610Z,3.90
2022-12-28T01:59:05.469Z,4.66
2022-12-28T02:01:36.890Z,4.72
2022-12-28T02:04:08.182Z,4.72
2022-12-28T02:06:37.161Z,4.73
2022-12-28T02:09:11.913Z,4.32
2022-12-28T02:12:03.253Z,4.70
2022-12-28T02:14:37.238Z,3.03
2022-12-28T02:17:06.411Z,4.61
2022-12-28T02:19:46.082Z,3.84
2022-12-28T02:23:14.143Z,3.26
2022-12-28T02:26:34.217Z,3.97
2022-12-28T02:29:56.922Z,3.76
2022-12-28T02:32:54.034Z,3.32
2022-12-28T02:35:35.788Z,2.70
2022-12-28T02:38:16.945Z,3.31
2022-12-28T02:41:07.201Z,3.28
2022-12-28T02:43:36.512Z,2.96
2022-12-28T02:46:38.461Z,2.95
2022-12-28T02:49:38.198Z,3.14
2022-12-28T02:52:22.491Z,3.06
2022-12-28T02:55:33.787Z,3.07
2022-12-28T02:58:30.480Z,3.00
2022-12-28T03:01:20.925Z,2.77
2022-12-28T03:04:10.250Z,1.80
2022-12-28T03:07:08.830Z,2.92
2022-12-28T03:09:45.819Z,2.02
2022-12-28T03:12:26.620Z,2.22
2022-12-28T03:15:04.981Z,2.88
2022-12-28T03:17:58.899Z,2.69
2022-12-28T03:20:49.633Z,2.84
2022-12-28T03:23:42.215Z,2.90
2022-12-28T03:26:32.079Z,2.80
2022-12-28T03:29:26.540Z,2.93
2022-12-28T03:31:55.755Z,2.96
2022-12-28T03:34:26.371Z,2.86
2022-12-28T03:37:05.366Z,2.58
2022-12-28T03:39:43.859Z,3.12
2022-12-28T03:42:36.891Z,3.11
2022-12-28T03:45:44.428Z,3.12
2022-12-28T03:48:08.508Z,3.16
2022-12-28T03:50:44.036Z,3.22
2022-12-28T03:53:13.029Z,3.28
2022-12-28T03:55:43.468Z,3.30
2022-12-28T03:58:12.479Z,3.37
2022-12-28T04:00:41.244Z,3.39
2022-12-28T04:03:10.266Z,3.47
2022-12-28T04:05:40.394Z,3.41
2022-12-28T04:08:09.253Z,3.03
2022-12-28T04:10:38.193Z,3.63
2022-12-28T04:13:06.706Z,3.19
2022-12-28T04:16:01.923Z,3.65
2022-12-28T04:18:32.935Z,3.62
2022-12-28T04:21:03.658Z,3.43
2022-12-28T04:23:33.505Z,3.20
2022-12-28T04:26:23.558Z,3.69
2022-12-28T04:28:54.655Z,3.71
2022-12-28T04:31:29.994Z,3.70
2022-12-28T04:34:04.308Z,3.69
2022-12-28T04:36:38.386Z,3.70
2022-12-28T04:39:11.112Z,3.71
2022-12-28T04:41:40.176Z,3.77
2022-12-28T04:44:09.324Z,3.79
2022-12-28T04:46:38.219Z,3.82
2022-12-28T04:49:07.163Z,3.83
2022-12-28T04:51:37.209Z,3.87
2022-12-28T04:54:06.201Z,3.89
2022-12-28T04:56:35.045Z,3.90
2022-12-28T04:59:03.512Z,3.92
2022-12-28T05:01:32.623Z,3.93
2022-12-28T05:04:01.983Z,3.92
2022-12-28T05:06:31.156Z,3.92
2022-12-28T05:09:01.156Z,3.88
2022-12-28T05:11:32.020Z,3.84
2022-12-28T05:14:00.907Z,3.84
2022-12-28T05:16:30.807Z,3.22
2022-12-28T05:18:59.687Z,3.79
2022-12-28T05:21:29.970Z,3.31
2022-12-28T05:24:00.132Z,3.76
2022-12-28T05:26:35.524Z,3.42
2022-12-28T05:29:04.649Z,3.75
2022-12-28T05:31:33.728Z,3.68
2022-12-28T05:34:02.273Z,3.68
2022-12-28T05:36:32.633Z,3.68
2022-12-28T05:39:02.663Z,2.89
2022-12-28T05:41:32.388Z,3.64
2022-12-28T05:44:01.357Z,3.81
2022-12-28T05:46:32.589Z,3.87
2022-12-28T05:49:01.940Z,3.56
2022-12-28T05:51:34.007Z,3.67
2022-12-28T05:54:05.431Z,4.01
2022-12-28T05:56:35.467Z,4.06
2022-12-28T05:59:06.812Z,3.90
2022-12-28T06:01:38.027Z,4.12
2022-12-28T06:04:09.774Z,4.12
2022-12-28T06:06:38.499Z,4.10
2022-12-28T06:09:08.340Z,4.07
2022-12-28T06:11:37.283Z,2.99
2022-12-28T06:14:09.303Z,4.05
2022-12-28T06:16:40.781Z,4.02
2022-12-28T06:19:11.980Z,3.16
2022-12-28T06:21:41.902Z,3.93
2022-12-28T06:24:13.948Z,3.89
2022-12-28T06:26:43.140Z,3.90
2022-12-28T06:29:12.179Z,3.94
2022-12-28T06:31:45.209Z,3.91
2022-12-28T06:34:14.041Z,3.61
2022-12-28T06:36:45.845Z,3.25
2022-12-28T06:39:16.338Z,3.77
2022-12-28T06:41:45.175Z,3.84
2022-12-28T06:44:15.457Z,3.85
2022-12-28T06:46:44.280Z,3.87
2022-12-28T06:49:12.815Z,3.65
2022-12-28T06:51:42.165Z,3.88
2022-12-28T06:54:11.929Z,3.91
2022-12-28T06:56:44.839Z,3.65
2022-12-28T06:59:13.279Z,3.92
2022-12-28T07:01:44.806Z,3.86
2022-12-28T07:04:14.368Z,4.05
2022-12-28T07:06:44.815Z,3.99
2022-12-28T07:09:15.844Z,3.51
2022-12-28T07:11:46.944Z,2.61
2022-12-28T07:14:15.831Z,4.22
2022-12-28T07:16:44.570Z,4.28
2022-12-28T07:19:13.266Z,4.34
2022-12-28T07:21:42.037Z,4.41
2022-12-28T07:24:11.011Z,4.47
2022-12-28T07:26:40.115Z,4.55
2022-12-28T07:29:10.544Z,4.36
2022-12-28T07:31:45.784Z,4.62
2022-12-28T07:34:16.158Z,4.80
2022-12-28T07:36:45.254Z,4.85
2022-12-28T07:39:14.091Z,4.90
2022-12-28T07:41:42.950Z,4.97
2022-12-28T07:44:13.069Z,4.24
2022-12-28T07:47:08.176Z,5.11
2022-12-28T07:49:37.021Z,5.31
2022-12-28T07:52:09.225Z,5.24
2022-12-28T07:54:38.933Z,5.53
2022-12-28T07:57:10.026Z,5.52
2022-12-28T07:59:42.596Z,5.44
2022-12-28T08:02:13.893Z,5.47
2022-12-28T08:04:46.191Z,5.47
2022-12-28T08:07:17.605Z,5.44
2022-12-28T08:09:45.970Z,5.42
2022-12-28T08:12:15.105Z,5.42
2022-12-28T08:14:45.607Z,4.97
2022-12-28T08:17:19.072Z,5.48
2022-12-28T08:19:50.145Z,5.55
2022-12-28T08:22:23.015Z,5.68
2022-12-28T08:24:52.223Z,5.78
2022-12-28T08:27:20.699Z,4.97
2022-12-28T08:29:54.167Z,6.01
2022-12-28T08:32:22.925Z,6.12
2022-12-28T08:34:51.774Z,5.74
2022-12-28T08:37:20.393Z,6.21
2022-12-28T08:39:48.906Z,5.30
2022-12-28T08:42:17.761Z,6.39
2022-12-28T08:44:46.191Z,6.18
2022-12-28T08:47:16.206Z,6.49
2022-12-28T08:49:44.933Z,6.54
2022-12-28T08:52:13.729Z,6.55
2022-12-28T08:54:42.233Z,4.75
2022-12-28T08:57:11.989Z,6.48
2022-12-28T08:59:40.542Z,6.38
2022-12-28T09:02:13.547Z,6.60
2022-12-28T09:04:43.827Z,6.68
2022-12-28T09:07:12.370Z,6.34
2022-12-28T09:09:40.805Z,6.58
2022-12-28T09:12:09.391Z,5.57
2022-12-28T09:14:37.846Z,6.55
2022-12-28T09:17:06.352Z,6.64
2022-12-28T09:19:35.211Z,6.79
2022-12-28T09:22:06.283Z,6.93
2022-12-28T09:24:34.850Z,7.07
2022-12-28T09:27:03.398Z,6.47
2022-12-28T09:29:31.938Z,6.61
2022-12-28T09:32:01.551Z,7.47
2022-12-28T09:34:38.312Z,7.68
2022-12-28T09:37:09.648Z,7.22
2022-12-28T09:39:38.225Z,6.96
2022-12-28T09:42:14.396Z,7.70
2022-12-28T09:44:59.593Z,7.79
2022-12-28T09:47:39.870Z,7.83
2022-12-28T09:50:29.933Z,7.87
2022-12-28T09:53:22.694Z,7.88
2022-12-28T09:56:01.293Z,7.19
2022-12-28T09:58:34.285Z,7.80
2022-12-28T10:01:05.249Z,7.81
2022-12-28T10:03:40.136Z,6.98
2022-12-28T10:06:15.145Z,7.82
2022-12-28T10:08:49.938Z,7.42
2022-12-28T10:11:23.734Z,6.73
2022-12-28T10:13:58.415Z,7.33
2022-12-28T10:16:32.141Z,8.22
2022-12-28T10:19:01.735Z,8.11
2022-12-28T10:21:34.935Z,7.43
2022-12-28T10:27:00.829Z,8.62
2022-12-28T10:29:32.364Z,8.73
2022-12-28T10:32:03.451Z,8.80
2022-12-28T10:34:35.864Z,8.83
2022-12-28T10:37:15.931Z,8.04
2022-12-28T10:39:54.260Z,8.47
2022-12-28T10:42:28.762Z,8.19
2022-12-28T10:45:06.268Z,8.38
2022-12-28T10:47:42.624Z,7.96
2022-12-28T10:53:41.956Z,8.41
2022-12-28T10:56:27.319Z,8.35
2022-12-28T10:59:21.220Z,8.63
2022-12-28T11:01:50.255Z,7.87
2022-12-28T11:04:22.360Z,8.48
2022-12-28T11:06:56.875Z,8.34
2022-12-28T11:09:28.958Z,8.62
2022-12-28T11:12:19.383Z,8.07
2022-12-28T11:14:52.416Z,8.87
2022-12-28T11:17:24.893Z,8.82
2022-12-28T11:19:58.690Z,8.97
2022-12-28T11:22:34.453Z,8.80
2022-12-28T11:25:09.672Z,7.19
2022-12-28T11:27:40.000Z,7.87
2022-12-28T11:30:17.513Z,7.90
2022-12-28T11:32:53.595Z,7.47
2022-12-28T11:35:28.152Z,7.67
2022-12-28T11:38:02.877Z,8.46
2022-12-28T11:40:52.322Z,8.51
2022-12-28T11:43:55.175Z,8.20
2022-12-28T11:46:44.028Z,8.16
2022-12-28T11:49:36.839Z,8.61
2022-12-28T11:53:23.635Z,8.48
2022-12-28T11:56:09.813Z,8.65
2022-12-28T11:59:22.703Z,8.75
2022-12-28T12:02:02.050Z,8.45
2022-12-28T12:04:46.307Z,8.75
2022-12-28T12:07:30.688Z,8.53
2022-12-28T12:21:11.857Z,8.79
2022-12-28T12:23:55.787Z,9.15
2022-12-28T12:26:40.588Z,8.50
2022-12-28T12:29:21.995Z,8.52
2022-12-28T12:32:01.529Z,8.68
2022-12-28T12:34:41.926Z,7.99
2022-12-28T12:37:49.424Z,9.31
2022-12-28T12:41:01.641Z,9.21
2022-12-28T12:43:51.465Z,9.14
2022-12-28T12:47:05.670Z,8.11
2022-12-28T12:50:26.613Z,8.27
2022-12-28T12:53:15.720Z,9.03
2022-12-28T12:56:07.220Z,9.01
2022-12-28T12:58:59.336Z,7.44
2022-12-28T13:01:52.324Z,8.84
2022-12-28T13:04:26.721Z,8.03
2022-12-28T13:07:01.537Z,9.03
2022-12-28T13:09:36.081Z,8.49
2022-12-28T13:12:16.969Z,8.10
2022-12-28T13:14:50.094Z,7.99
2022-12-28T13:17:22.486Z,7.77
2022-12-28T13:19:51.382Z,8.84
2022-12-28T13:22:36.565Z,8.59
2022-12-28T13:25:15.304Z,8.05
2022-12-28T13:27:45.657Z,8.86
2022-12-28T13:30:21.264Z,8.83
2022-12-28T13:32:53.909Z,7.45
2022-12-28T13:35:28.745Z,8.94
2022-12-28T13:38:05.157Z,8.15
2022-12-28T13:40:34.729Z,8.68
2022-12-28T13:43:41.912Z,8.51
2022-12-28T13:46:17.263Z,8.83
2022-12-28T13:48:51.794Z,8.57
2022-12-28T13:51:25.045Z,8.89
2022-12-28T13:54:02.150Z,8.44
2022-12-28T13:56:39.674Z,8.72
2022-12-28T13:59:15.534Z,8.46
2022-12-28T14:01:49.804Z,8.31
2022-12-28T14:04:51.756Z,8.96
2022-12-28T14:07:20.010Z,7.85
2022-12-28T14:09:50.188Z,7.41
2022-12-28T14:12:19.884Z,8.91
2022-12-28T14:14:52.234Z,8.14
2022-12-28T14:17:25.511Z,7.85
2022-12-28T14:19:57.807Z,7.92
2022-12-28T14:22:31.612Z,7.47
2022-12-28T14:25:10.123Z,8.09
2022-12-28T14:27:42.999Z,8.86
2022-12-28T14:30:27.498Z,8.27
2022-12-28T14:33:11.541Z,7.69
2022-12-28T14:35:50.745Z,7.30
2022-12-28T14:38:25.537Z,8.75
2022-12-28T14:40:56.650Z,7.28
2022-12-28T14:43:28.491Z,7.32
2022-12-28T14:46:29.969Z,8.08
2022-12-28T14:48:59.158Z,8.72
2022-12-28T14:51:32.045Z,7.96
2022-12-28T14:54:23.653Z,8.61
2022-12-28T14:57:00.331Z,8.38
2022-12-28T14:59:35.530Z,8.27
2022-12-28T15:02:07.005Z,7.82
2022-12-28T15:04:39.286Z,7.28
2022-12-28T15:07:10.471Z,8.60
2022-12-28T15:09:39.851Z,8.18
2022-12-28T15:12:14.519Z,8.51
2022-12-28T15:14:43.785Z,8.58
2022-12-28T15:17:14.569Z,7.83
2022-12-28T15:19:44.895Z,8.20
2022-12-28T15:22:14.841Z,8.44
2022-12-28T15:24:45.564Z,8.41
2022-12-28T15:27:14.618Z,8.37
2022-12-28T15:32:35.769Z,8.05
2022-12-28T15:35:04.950Z,8.27
2022-12-28T15:37:33.737Z,8.03
2022-12-28T15:40:02.777Z,8.16
2022-12-28T15:42:36.528Z,8.12
2022-12-28T15:45:10.428Z,7.99
2022-12-28T15:47:40.723Z,7.00
2022-12-28T15:50:11.233Z,7.83
2022-12-28T15:52:40.094Z,7.84
2022-12-28T15:55:09.534Z,7.40
2022-12-28T15:57:38.066Z,8.00
2022-12-28T16:00:08.832Z,7.76
2022-12-28T16:02:37.796Z,8.02
2022-12-28T16:05:09.703Z,8.02
2022-12-28T16:07:38.681Z,8.02
2022-12-28T16:10:08.537Z,7.55
2022-12-28T16:12:37.169Z,7.54
2022-12-28T16:15:06.875Z,7.49
2022-12-28T16:17:41.713Z,6.66
2022-12-28T16:20:17.421Z,7.40
2022-12-28T16:22:46.242Z,7.21
2022-12-28T16:25:15.250Z,8.04
2022-12-28T16:27:43.953Z,7.71
2022-12-28T16:30:15.592Z,8.08
2022-12-28T16:32:44.443Z,8.09
2022-12-28T16:35:13.035Z,7.79
2022-12-28T16:37:43.772Z,8.12
2022-12-28T16:40:13.183Z,7.56
2022-12-28T16:42:45.717Z,8.14
2022-12-28T16:45:14.430Z,8.15
2022-12-28T16:47:45.144Z,8.09
2022-12-28T16:50:14.273Z,8.19
2022-12-28T16:52:44.883Z,7.13
2022-12-28T16:55:13.496Z,8.13
2022-12-28T16:57:42.163Z,6.45
2022-12-28T17:00:12.905Z,8.09
2022-12-28T17:02:42.081Z,8.08
2022-12-28T17:05:11.487Z,8.06
2022-12-28T17:07:40.643Z,8.08
2022-12-28T17:10:11.752Z,7.24
2022-12-28T17:12:40.714Z,8.09
2022-12-28T17:15:10.689Z,8.08
2022-12-28T17:17:39.440Z,8.06
2022-12-28T17:20:09.205Z,7.56
2022-12-28T17:22:37.701Z,6.83
2022-12-28T17:25:09.798Z,7.96
2022-12-28T17:27:39.752Z,8.10
2022-12-28T17:30:09.638Z,7.93
2022-12-28T17:32:38.165Z,7.55
2022-12-28T17:35:08.257Z,7.30
2022-12-28T17:37:37.492Z,7.63
2022-12-28T17:40:07.770Z,7.81
2022-12-28T17:42:37.064Z,8.16
2022-12-28T17:45:11.735Z,7.93
2022-12-28T17:47:43.409Z,8.12
2022-12-28T17:50:12.330Z,8.10
2022-12-28T17:52:41.988Z,8.10
2022-12-28T17:55:11.587Z,7.97
2022-12-28T17:57:40.275Z,7.66
2022-12-28T18:00:12.996Z,7.74
2022-12-28T18:02:42.874Z,7.75
2022-12-28T18:05:14.452Z,8.14
2022-12-28T18:07:43.093Z,8.15
2022-12-28T18:10:12.017Z,7.44
2022-12-28T18:12:40.645Z,8.14
2022-12-28T18:15:11.990Z,7.82
2022-12-28T18:17:41.088Z,8.14
2022-12-28T18:20:13.180Z,7.55
2022-12-28T18:22:41.955Z,7.46
2022-12-28T18:25:14.169Z,8.05
2022-12-28T18:27:43.440Z,8.18
2022-12-28T18:30:18.446Z,8.20
2022-12-28T18:32:47.366Z,8.22
2022-12-28T18:35:16.991Z,8.22
2022-12-28T18:37:45.652Z,7.96
2022-12-28T18:40:14.240Z,8.26
2022-12-28T18:42:42.973Z,8.28
2022-12-28T18:45:13.281Z,8.28
2022-12-28T18:47:42.585Z,8.28
2022-12-28T18:50:12.273Z,7.98
2022-12-28T18:52:42.142Z,8.04
2022-12-28T18:55:11.368Z,8.29
2022-12-28T18:57:39.946Z,8.31
2022-12-28T19:00:13.580Z,8.18
2022-12-28T19:02:42.350Z,8.30
2022-12-28T19:05:11.481Z,8.28
2022-12-28T19:07:45.825Z,8.29
2022-12-28T19:10:17.800Z,8.27
2022-12-28T19:12:46.398Z,8.19
2022-12-28T19:15:18.706Z,8.28
2022-12-28T19:17:47.501Z,7.50
2022-12-28T19:20:17.699Z,8.23
2022-12-28T19:22:47.040Z,8.19
2022-12-28T19:25:16.107Z,8.15
2022-12-28T19:27:44.859Z,8.09
2022-12-28T19:30:16.303Z,8.15
2022-12-28T19:32:45.547Z,8.13
2022-12-28T19:35:15.695Z,8.14
2022-12-28T19:37:45.078Z,7.33
2022-12-28T19:40:14.031Z,8.09
2022-12-28T19:42:43.674Z,7.07
2022-12-28T19:45:12.814Z,8.11
2022-12-28T19:47:43.070Z,7.84
2022-12-28T19:50:12.230Z,8.11
2022-12-28T19:52:42.424Z,8.11
2022-12-28T19:55:11.580Z,8.12
2022-12-28T19:57:43.772Z,7.88
2022-12-28T20:00:15.075Z,8.13
2022-12-28T20:02:46.460Z,8.16
2022-12-28T20:05:15.971Z,8.16
2022-12-28T20:07:44.895Z,8.02
2022-12-28T20:10:15.977Z,8.15
2022-12-28T20:12:45.435Z,8.19
2022-12-28T20:15:14.045Z,7.93
2022-12-28T20:17:47.447Z,8.21
2022-12-28T20:20:21.323Z,8.22
2022-12-28T20:22:52.545Z,8.11
2022-12-28T20:25:23.353Z,7.31
2022-12-28T20:27:59.037Z,8.20
2022-12-28T20:30:27.963Z,8.21
2022-12-28T20:32:58.208Z,6.89
2022-12-28T20:35:30.042Z,8.20
2022-12-28T20:37:58.836Z,8.06
2022-12-28T20:40:27.647Z,8.21
2022-12-28T20:43:13.606Z,8.19
2022-12-28T20:45:42.119Z,8.09
2022-12-28T20:48:12.069Z,8.16
2022-12-28T20:50:41.194Z,7.76
2022-12-28T20:53:12.066Z,8.15
2022-12-28T20:55:44.980Z,7.76
2022-12-28T20:58:15.342Z,8.15
2022-12-28T21:00:44.342Z,6.98
2022-12-28T21:03:14.344Z,8.12
2022-12-28T21:05:42.927Z,8.10
2022-12-28T21:08:12.439Z,7.83
2022-12-28T21:10:41.140Z,8.10
2022-12-28T21:13:09.682Z,7.68
2022-12-28T21:15:41.892Z,7.65
2022-12-28T21:18:10.862Z,8.04
2022-12-28T21:20:46.794Z,7.88
2022-12-28T21:23:16.435Z,6.92
2022-12-28T21:25:45.048Z,7.87
2022-12-28T21:28:13.920Z,7.85
2022-12-28T21:30:42.841Z,7.84
2022-12-28T21:33:11.899Z,7.71
2022-12-28T21:35:41.890Z,7.61
2022-12-28T21:38:11.767Z,7.73
2022-12-28T21:40:40.568Z,7.83
2022-12-28T21:43:09.032Z,7.86
2022-12-28T21:45:38.154Z,7.86
2022-12-28T21:48:07.001Z,7.38
2022-12-28T21:50:35.565Z,7.75
2022-12-28T21:53:05.470Z,7.67
2022-12-28T21:55:45.383Z,7.01
2022-12-28T21:58:14.707Z,7.08
2022-12-28T22:01:00.691Z,7.40
2022-12-28T22:03:46.934Z,6.49
2022-12-28T22:06:15.535Z,7.09
2022-12-28T22:09:03.305Z,6.50
2022-12-28T22:11:49.235Z,7.28
2022-12-28T22:14:21.116Z,7.27
2022-12-28T22:16:49.980Z,7.28
2022-12-28T22:19:18.835Z,6.65
2022-12-28T22:21:47.352Z,7.26
2022-12-28T22:24:17.380Z,6.72
2022-12-28T22:26:46.142Z,7.27
2022-12-28T22:29:15.567Z,7.27
2022-12-28T22:31:44.262Z,7.28
2022-12-28T22:34:14.081Z,7.00
2022-12-28T22:36:47.337Z,7.24
2022-12-28T22:39:17.381Z,7.08
2022-12-28T22:41:45.933Z,6.71
2022-12-28T22:44:14.570Z,7.13
2022-12-28T22:46:43.132Z,6.92
2022-12-28T22:49:11.622Z,6.85
2022-12-28T22:51:40.918Z,7.11
2022-12-28T22:54:09.286Z,7.07
2022-12-28T22:56:39.307Z,7.12
2022-12-28T22:59:12.221Z,6.97
2022-12-28T23:01:44.630Z,7.08
2022-12-28T23:04:13.266Z,5.95
2022-12-28T23:06:41.895Z,6.91
2022-12-28T23:09:10.407Z,7.04
2022-12-28T23:11:40.495Z,7.05
2022-12-28T23:14:30.600Z,6.62
2022-12-28T23:16:59.827Z,7.09
2022-12-28T23:19:46.685Z,7.17
2022-12-28T23:22:36.093Z,7.31
2022-12-28T23:25:22.934Z,7.36
2022-12-28T23:27:53.149Z,7.50
2022-12-28T23:30:25.978Z,7.60
2022-12-28T23:32:55.636Z,7.51
2022-12-28T23:35:26.133Z,6.83
2022-12-28T23:37:54.725Z,7.48
2022-12-28T23:40:24.719Z,7.84
2022-12-28T23:42:55.350Z,7.75
2022-12-28T23:45:25.994Z,7.96
2022-12-28T23:47:57.449Z,8.01
2022-12-28T23:50:25.981Z,7.85
2022-12-28T23:52:54.364Z,8.14
2022-12-28T23:55:23.342Z,8.22
2022-12-28T23:57:57.677Z,7.81
